Wilmington, North Carolina
Current Conditions -  °F | °C
As of 8:08 PM on Sunday 23 Nov 2014 (Local Time) from KILM Reporting Station
Light Rain Light Rain  
Wind Chill: 66°   Ceiling: 2100
Heat Index: 66°   Visibility: 8mi
Dew Point: 63°   Wind: 12mph
Humidity: 90%   Direction: 150°SSE
Pressure: 29.93"   Gusts: 18mph
Location:  34.24°N, 77.94°W
Report Text: KILM 240108Z 15010G16KT 8SM -RA BKN021 BKN032 OVC050 19/17 A2993 RMK AO2 P0000 T01890172
Loading
Personal Weather Stations






























Interactive Weather Map New forecast layout! Learn more

10-Day Weather Forecast

Advertisements
Track Severe Weather on mobile